Time;durP1;ratioP1;P1;durP2;ratioP2;P2;SDS_P1;SDS_P2;PMS_P1;PMS_P2;Temp;Humidity;BMP_temperature;BMP_pressure;BME280_temperature;BME280_humidity;BME280_pressure;Samples;Min_cycle;Max_cycle;Signal;HPM_P1;HPM_P2
2022/11/28 00:01:07;;;;;;;137.52;70.45;;;179.50;2252.80;;;;;;4971860;28;20030;-60
2022/11/28 00:03:33;;;;;;;126.78;67.90;;;179.30;2252.80;;;;;;4970515;28;20118;-56
2022/11/28 00:06:07;;;;;;;140.35;66.80;;;179.40;2252.80;;;;;;4970111;28;20102;-56
2022/11/28 00:08:33;;;;;;;128.20;69.68;;;179.40;2252.80;;;;;;4970583;28;20023;-58
2022/11/28 00:11:04;;;;;;;124.93;62.78;;;154.50;2252.80;;;;;;4970416;28;20035;-55
2022/11/28 00:13:30;;;;;;;127.63;66.63;;;179.20;2252.80;;;;;;4970337;28;20797;-56
2022/11/28 00:16:00;;;;;;;132.40;66.97;;;179.30;2252.80;;;;;;4970496;28;20063;-56
2022/11/28 00:18:27;;;;;;;127.88;67.00;;;179.20;2252.80;;;;;;4970032;28;20062;-63
2022/11/28 00:20:58;;;;;;;117.88;63.10;;;179.20;2252.80;;;;;;4970504;28;20110;-61
2022/11/28 00:23:24;;;;;;;117.10;58.63;;;179.20;2252.80;;;;;;4970685;28;20497;-55
2022/11/28 00:26:08;;;;;;;135.65;67.28;;;179.20;2252.80;;;;;;4954807;28;20043;-55
2022/11/28 00:28:34;;;;;;;131.68;70.78;;;179.50;2252.80;;;;;;4971919;28;20030;-54
2022/11/28 00:31:00;;;;;;;126.22;64.88;;;179.30;2252.80;;;;;;4971741;28;20034;-54
2022/11/28 00:33:26;;;;;;;125.07;67.40;;;179.40;2252.80;;;;;;4971692;28;20050;-55
2022/11/28 00:36:01;;;;;;;125.13;65.60;;;179.50;2252.80;;;;;;4953864;28;20478;-56
2022/11/28 00:38:28;;;;;;;112.28;58.90;;;179.40;2252.80;;;;;;4971273;28;20066;-55
2022/11/28 00:41:00;;;;;;;135.05;77.60;;;179.40;2252.80;;;;;;4971592;28;20031;-54
2022/11/28 00:43:27;;;;;;;136.02;74.40;;;179.40;2252.80;;;;;;4971586;28;20441;-54
2022/11/28 00:45:52;;;;;;;110.40;54.65;;;179.40;2252.80;;;;;;4971831;28;20105;-54
2022/11/28 00:48:18;;;;;;;105.60;57.10;;;179.30;2252.80;;;;;;4971193;28;20430;-55
2022/11/28 00:50:44;;;;;;;114.90;63.92;;;179.30;2252.80;;;;;;4971484;28;20027;-54
2022/11/28 00:53:09;;;;;;;127.43;69.75;;;179.30;2252.80;;;;;;4971031;28;20026;-55
2022/11/28 00:55:38;;;;;;;113.00;61.92;;;179.30;2252.80;;;;;;4971185;28;20085;-54
2022/11/28 00:58:03;;;;;;;112.65;60.90;;;179.40;2252.80;;;;;;4971241;28;20482;-68
2022/11/28 01:00:29;;;;;;;131.32;70.30;;;179.40;2252.80;;;;;;4971247;28;20030;-59
2022/11/28 01:02:55;;;;;;;132.52;64.68;;;179.40;2252.80;;;;;;4971243;28;20110;-69
2022/11/28 01:05:21;;;;;;;118.88;62.38;;;179.20;2252.80;;;;;;4971083;28;20027;-65
2022/11/28 01:07:47;;;;;;;121.28;63.58;;;179.20;2252.80;;;;;;4971028;28;20167;-61
2022/11/28 01:10:13;;;;;;;135.23;66.85;;;179.30;2252.80;;;;;;4971142;28;20023;-53
2022/11/28 01:12:38;;;;;;;149.70;75.03;;;179.40;2252.80;;;;;;4971116;28;20034;-54
2022/11/28 01:15:07;;;;;;;148.70;71.50;;;179.30;2252.80;;;;;;4971026;28;20492;-55
2022/11/28 01:17:32;;;;;;;150.57;74.25;;;179.30;2252.80;;;;;;4971247;28;20049;-54
2022/11/28 01:19:58;;;;;;;139.88;64.95;;;179.20;2252.80;;;;;;4971624;28;20501;-54
2022/11/28 01:22:24;;;;;;;134.98;69.18;;;179.30;2252.80;;;;;;4980486;28;20034;-54
2022/11/28 01:24:49;;;;;;;135.68;67.18;;;179.40;2252.80;;;;;;4962938;28;20050;-56
2022/11/28 01:27:15;;;;;;;114.18;53.58;;;179.60;2252.80;;;;;;4979189;28;20109;-55
2022/11/28 01:29:41;;;;;;;119.80;58.50;;;179.50;2252.80;;;;;;4980392;28;20101;-56
2022/11/28 01:32:06;;;;;;;124.10;57.80;;;179.50;2252.80;;;;;;4980457;28;20027;-66
2022/11/28 01:34:32;;;;;;;127.35;59.83;;;179.50;2252.80;;;;;;4979277;28;20038;-69
2022/11/28 01:36:59;;;;;;;116.10;56.25;;;179.50;2252.80;;;;;;4980827;28;20088;-54
2022/11/28 01:39:25;;;;;;;115.07;56.95;;;179.60;2252.80;;;;;;4980271;28;20033;-67
2022/11/28 01:41:50;;;;;;;102.97;51.03;;;179.50;2252.80;;;;;;4984142;28;20050;-62
2022/11/28 01:44:16;;;;;;;108.57;54.70;;;179.50;2252.80;;;;;;4991515;28;20064;-56
2022/11/28 01:46:42;;;;;;;120.88;57.58;;;179.20;2252.80;;;;;;4994320;28;20034;-54
2022/11/28 01:49:20;;;;;;;111.45;57.08;;;154.40;2252.80;;;;;;4994057;28;20026;-55
2022/11/28 01:51:51;;;;;;;111.40;60.00;;;179.20;2252.80;;;;;;4977691;28;20113;-54
2022/11/28 01:54:21;;;;;;;121.57;57.65;;;154.50;2252.80;;;;;;4993599;28;20396;-55
2022/11/28 01:56:53;;;;;;;114.13;55.55;;;179.20;2252.80;;;;;;4993458;28;20058;-57
2022/11/28 01:59:22;;;;;;;101.60;52.63;;;154.50;2252.80;;;;;;4993901;28;20388;-54
2022/11/28 02:01:48;;;;;;;110.47;56.10;;;179.20;2252.80;;;;;;4993886;28;20024;-54
2022/11/28 02:04:14;;;;;;;120.30;58.15;;;154.50;2252.80;;;;;;4993840;28;20026;-54
2022/11/28 02:06:41;;;;;;;112.32;56.30;;;154.40;2252.80;;;;;;4993800;28;20029;-55
2022/11/28 02:09:14;;;;;;;116.30;59.47;;;154.50;2252.80;;;;;;4993790;28;20022;-55
2022/11/28 02:11:58;;;;;;;113.03;58.13;;;179.20;2252.80;;;;;;4993567;28;20030;-55
2022/11/28 02:15:00;;;;;;;112.30;54.58;;;179.20;2252.80;;;;;;4993729;28;20023;-68
2022/11/28 02:17:44;;;;;;;120.03;61.30;;;154.50;2252.80;;;;;;4993626;28;20034;-70
2022/11/28 02:20:45;;;;;;;120.80;57.47;;;179.20;2252.80;;;;;;4993242;28;20056;-55
2022/11/28 02:23:23;;;;;;;120.53;56.08;;;154.50;2252.80;;;;;;4993442;28;20488;-55
2022/11/28 02:26:19;;;;;;;115.72;58.53;;;179.20;2252.80;;;;;;4993206;28;20500;-55
2022/11/28 02:29:03;;;;;;;103.53;53.70;;;154.40;2252.80;;;;;;4993586;28;20460;-54
2022/11/28 02:31:57;;;;;;;113.10;60.05;;;154.40;2252.80;;;;;;4993432;28;20037;-55
2022/11/28 02:34:53;;;;;;;109.00;58.92;;;154.50;2252.80;;;;;;4993402;28;20027;-55
2022/11/28 02:37:45;;;;;;;112.05;59.15;;;154.40;2252.80;;;;;;4993022;28;20481;-60
2022/11/28 02:40:16;;;;;;;102.25;56.20;;;154.50;2252.80;;;;;;4913904;29;20076;-56
2022/11/28 02:43:09;;;;;;;109.13;56.08;;;154.50;2252.80;;;;;;4914362;29;20403;-55
2022/11/28 02:45:49;;;;;;;108.75;57.35;;;154.40;2252.80;;;;;;4914223;29;20172;-63
2022/11/28 02:48:42;;;;;;;101.95;56.15;;;154.50;2252.80;;;;;;4914164;29;20033;-54
2022/11/28 02:51:20;;;;;;;120.32;62.78;;;154.50;2252.80;;;;;;4913970;29;20036;-55
2022/11/28 02:53:47;;;;;;;119.60;59.60;;;154.30;2252.80;;;;;;4914106;29;20028;-55
2022/11/28 02:56:13;;;;;;;118.03;58.38;;;154.30;2252.80;;;;;;4912469;29;20063;-54
2022/11/28 02:58:39;;;;;;;99.30;53.40;;;154.10;2252.80;;;;;;4913703;29;20044;-55
2022/11/28 03:01:11;;;;;;;117.78;60.85;;;154.10;2252.80;;;;;;4913953;29;20083;-54
2022/11/28 03:03:53;;;;;;;105.45;58.20;;;154.20;2252.80;;;;;;4913717;29;20045;-55
2022/11/28 03:06:28;;;;;;;118.00;58.63;;;154.30;2252.80;;;;;;4913567;29;20032;-55
2022/11/28 03:09:22;;;;;;;116.38;58.80;;;154.20;2252.80;;;;;;4913839;29;20043;-56
2022/11/28 03:12:12;;;;;;;113.20;58.38;;;154.30;2252.80;;;;;;4913542;29;20068;-55
2022/11/28 03:14:56;;;;;;;111.47;57.15;;;154.50;2252.80;;;;;;4913659;29;20040;-54
2022/11/28 03:17:40;;;;;;;108.05;56.30;;;154.50;2252.80;;;;;;4958642;28;20132;-54
2022/11/28 03:20:08;;;;;;;96.38;49.97;;;154.50;2252.80;;;;;;4992643;28;20451;-68
2022/11/28 03:22:50;;;;;;;112.95;54.40;;;154.50;2252.80;;;;;;4992565;28;20026;-54
2022/11/28 03:25:24;;;;;;;116.38;59.55;;;154.50;2252.80;;;;;;4992353;28;20401;-54
2022/11/28 03:27:54;;;;;;;95.32;51.97;;;154.50;2252.80;;;;;;4992160;28;20488;-54
2022/11/28 03:30:31;;;;;;;76.93;38.15;;;154.40;2252.80;;;;;;4992185;28;20432;-55
2022/11/28 03:32:59;;;;;;;91.65;44.80;;;154.30;2252.80;;;;;;4992127;28;20097;-54
2022/11/28 03:35:29;;;;;;;78.43;39.10;;;154.50;2252.80;;;;;;4992008;28;20038;-54
2022/11/28 03:38:11;;;;;;;72.60;38.17;;;154.50;2252.80;;;;;;4992306;28;20038;-54
2022/11/28 03:40:43;;;;;;;78.70;40.38;;;179.20;2252.80;;;;;;4992021;28;20499;-54
2022/11/28 03:43:15;;;;;;;80.57;41.00;;;179.20;2252.80;;;;;;4992104;28;20034;-64
2022/11/28 03:45:47;;;;;;;67.90;40.25;;;179.20;2252.80;;;;;;4992135;28;20027;-55
2022/11/28 03:48:37;;;;;;;86.70;44.95;;;179.20;2252.80;;;;;;4991945;28;20089;-55
2022/11/28 03:51:19;;;;;;;76.53;43.58;;;179.20;2252.80;;;;;;4991836;28;20046;-55
2022/11/28 03:54:10;;;;;;;60.72;33.25;;;179.20;2252.80;;;;;;4991925;28;20058;-55
2022/11/28 03:56:46;;;;;;;58.00;29.90;;;154.50;2252.80;;;;;;4991543;28;20069;-54
2022/11/28 03:59:33;;;;;;;51.55;30.27;;;179.20;2252.80;;;;;;4991975;28;20022;-55
2022/11/28 04:02:35;;;;;;;62.42;35.33;;;179.20;2252.80;;;;;;4991510;28;20474;-55
2022/11/28 04:05:13;;;;;;;54.50;31.65;;;179.20;2252.80;;;;;;4986340;28;20109;-54
2022/11/28 04:07:54;;;;;;;66.63;36.42;;;154.50;2252.80;;;;;;4991139;28;20034;-54
2022/11/28 04:10:37;;;;;;;72.22;41.28;;;154.50;2252.80;;;;;;4991419;28;20385;-54
2022/11/28 04:13:03;;;;;;;71.07;36.03;;;154.50;2252.80;;;;;;4991536;28;20030;-54
2022/11/28 04:15:53;;;;;;;71.25;38.58;;;154.20;2252.80;;;;;;4991407;28;20037;-54
2022/11/28 04:18:40;;;;;;;72.90;41.75;;;179.20;2252.80;;;;;;4980976;28;20327;-55
2022/11/28 04:21:13;;;;;;;88.13;46.90;;;179.30;2252.80;;;;;;4971896;28;20501;-54
2022/11/28 04:23:42;;;;;;;91.65;53.13;;;179.20;2252.80;;;;;;4971695;28;20401;-55
2022/11/28 04:26:19;;;;;;;88.82;46.20;;;179.20;2252.80;;;;;;4971697;28;20118;-55
2022/11/28 04:28:47;;;;;;;112.57;62.00;;;154.50;2252.80;;;;;;4971919;28;20042;-55
2022/11/28 04:31:16;;;;;;;105.15;59.80;;;179.20;2252.80;;;;;;4971776;28;20050;-55
2022/11/28 04:33:45;;;;;;;108.47;60.40;;;179.20;2252.80;;;;;;4971688;28;20031;-54
2022/11/28 04:36:15;;;;;;;122.63;68.18;;;154.40;2252.80;;;;;;4971337;28;20092;-64
2022/11/28 04:38:43;;;;;;;126.80;64.13;;;154.20;2252.80;;;;;;4971350;28;20069;-55
2022/11/28 04:41:15;;;;;;;88.18;50.65;;;154.50;2252.80;;;;;;4954063;28;20026;-54
2022/11/28 04:43:50;;;;;;;98.72;56.95;;;154.50;2252.80;;;;;;4971508;28;20094;-55
2022/11/28 04:46:26;;;;;;;100.13;52.97;;;154.50;2252.80;;;;;;4971560;28;20065;-62
2022/11/28 04:48:52;;;;;;;118.88;61.78;;;179.20;2252.80;;;;;;4971086;28;20027;-68
2022/11/28 04:51:42;;;;;;;107.93;56.45;;;179.20;2252.80;;;;;;4971126;28;20088;-68
2022/11/28 04:54:38;;;;;;;116.63;60.22;;;179.20;2252.80;;;;;;4971340;28;20411;-66
2022/11/28 04:57:16;;;;;;;118.78;63.10;;;154.50;2252.80;;;;;;4892801;29;20619;-69
2022/11/28 04:59:42;;;;;;;116.53;63.30;;;154.20;2252.80;;;;;;4892878;29;20028;-68
2022/11/28 05:02:10;;;;;;;119.30;62.40;;;154.10;2252.80;;;;;;4892914;29;20048;-65
2022/11/28 05:04:36;;;;;;;141.15;68.25;;;154.40;2252.80;;;;;;4893109;29;20027;-69
2022/11/28 05:07:04;;;;;;;113.05;64.97;;;154.50;2252.80;;;;;;4892944;29;20033;-68
2022/11/28 05:09:30;;;;;;;141.63;72.78;;;179.20;2252.80;;;;;;4892714;29;20048;-61
2022/11/28 05:11:55;;;;;;;127.65;70.13;;;154.50;2252.80;;;;;;4892929;29;20076;-62
2022/11/28 05:14:22;;;;;;;129.70;67.55;;;154.40;2252.80;;;;;;4892650;29;20384;-68
2022/11/28 05:16:48;;;;;;;125.13;71.70;;;154.20;2252.80;;;;;;4892687;29;20064;-54
2022/11/28 05:19:14;;;;;;;139.93;72.03;;;154.10;2252.80;;;;;;4894808;29;20087;-55
2022/11/28 05:21:39;;;;;;;144.20;75.35;;;154.10;2252.80;;;;;;4896552;29;20037;-54
2022/11/28 05:24:06;;;;;;;147.65;80.00;;;154.10;2252.80;;;;;;4896848;29;20040;-54
2022/11/28 05:26:33;;;;;;;144.18;73.65;;;154.20;2252.80;;;;;;4896493;29;20048;-54
2022/11/28 05:29:00;;;;;;;151.02;79.25;;;154.20;2252.80;;;;;;4896441;29;20476;-55
2022/11/28 05:31:27;;;;;;;130.73;71.10;;;154.20;2252.80;;;;;;4896695;29;20109;-61
2022/11/28 05:33:54;;;;;;;159.80;79.70;;;154.20;2252.80;;;;;;4930925;28;20401;-67
2022/11/28 05:36:20;;;;;;;137.13;72.30;;;154.20;2252.80;;;;;;4974802;28;20035;-69
2022/11/28 05:38:47;;;;;;;136.18;74.07;;;154.20;2252.80;;;;;;4974955;28;20251;-61
2022/11/28 05:41:23;;;;;;;139.02;78.43;;;154.20;2252.80;;;;;;4974616;28;20101;-65
2022/11/28 05:43:50;;;;;;;147.73;79.30;;;154.10;2252.80;;;;;;4974682;28;20023;-65
2022/11/28 05:46:15;;;;;;;149.02;82.38;;;154.20;2252.80;;;;;;4975127;28;20381;-68
2022/11/28 05:48:41;;;;;;;166.05;88.93;;;154.10;2252.80;;;;;;4974767;28;20034;-60
2022/11/28 05:51:07;;;;;;;152.02;86.22;;;154.10;2252.80;;;;;;4974659;28;20366;-64
2022/11/28 05:53:33;;;;;;;158.80;86.43;;;154.20;2252.80;;;;;;4974748;28;20038;-69
2022/11/28 05:56:04;;;;;;;156.93;83.85;;;154.20;2252.80;;;;;;4974139;28;20062;-64
2022/11/28 05:58:30;;;;;;;174.20;93.55;;;154.20;2252.80;;;;;;4974300;28;20035;-69
2022/11/28 06:00:57;;;;;;;172.57;94.68;;;154.20;2252.80;;;;;;4974487;28;20692;-68
2022/11/28 06:03:23;;;;;;;165.35;95.13;;;154.30;2252.80;;;;;;4974635;28;20072;-69
2022/11/28 06:05:48;;;;;;;184.98;93.80;;;154.30;2252.80;;;;;;4974296;28;20500;-69
2022/11/28 06:08:14;;;;;;;172.52;93.07;;;154.20;2252.80;;;;;;4974358;28;20077;-69
2022/11/28 06:10:40;;;;;;;181.32;95.72;;;154.20;2252.80;;;;;;4974088;28;20034;-60
2022/11/28 06:13:06;;;;;;;180.07;103.28;;;154.30;2252.80;;;;;;4974424;28;20393;-56
2022/11/28 06:15:32;;;;;;;221.07;120.03;;;154.30;2252.80;;;;;;4974429;28;20425;-62
2022/11/28 06:17:57;;;;;;;209.40;112.30;;;154.10;2252.80;;;;;;4974054;28;20370;-60
2022/11/28 06:20:23;;;;;;;182.52;94.07;;;154.10;2252.80;;;;;;4974111;28;20150;-62
2022/11/28 06:22:49;;;;;;;184.60;97.97;;;154.30;2252.80;;;;;;4973911;28;20058;-66
2022/11/28 06:25:15;;;;;;;104.65;49.60;;;154.40;2252.80;;;;;;4974134;28;20532;-68
2022/11/28 06:27:41;;;;;;;145.50;75.60;;;154.20;2252.80;;;;;;4973785;28;20034;-61
2022/11/28 06:30:07;;;;;;;181.48;96.20;;;154.10;2252.80;;;;;;4973782;28;20034;-61
2022/11/28 06:32:33;;;;;;;182.90;98.60;;;154.00;2252.80;;;;;;4974151;28;20031;-61
2022/11/28 06:34:58;;;;;;;172.00;90.30;;;154.00;2252.80;;;;;;4973662;28;20027;-65
2022/11/28 06:37:24;;;;;;;179.05;83.90;;;154.00;2252.80;;;;;;4973603;28;20070;-66
2022/11/28 06:39:50;;;;;;;178.57;95.57;;;154.10;2252.80;;;;;;4973547;28;20035;-62
2022/11/28 06:42:16;;;;;;;238.40;117.18;;;154.00;2252.80;;;;;;4973659;28;20154;-65
2022/11/28 06:44:42;;;;;;;204.00;100.72;;;153.90;2252.80;;;;;;4973828;28;20026;-63
2022/11/28 06:47:08;;;;;;;186.60;94.53;;;153.90;2252.80;;;;;;4973726;28;20058;-58
2022/11/28 06:49:35;;;;;;;205.80;104.40;;;154.00;2252.80;;;;;;4973661;28;20038;-53
2022/11/28 06:52:01;;;;;;;184.38;95.25;;;153.80;2252.80;;;;;;4973652;28;20118;-53
2022/11/28 06:54:27;;;;;;;174.93;88.30;;;153.80;2252.80;;;;;;4973438;28;20098;-53
2022/11/28 06:56:53;;;;;;;179.20;93.82;;;153.70;2252.80;;;;;;4973194;28;20506;-58
2022/11/28 06:59:18;;;;;;;206.77;95.50;;;153.90;2252.80;;;;;;4973177;28;20426;-53
2022/11/28 07:01:44;;;;;;;179.80;87.90;;;154.20;2252.80;;;;;;4973569;28;20022;-67
2022/11/28 07:04:10;;;;;;;171.90;89.20;;;153.90;2252.80;;;;;;4973426;28;20144;-56
2022/11/28 07:06:37;;;;;;;178.43;89.55;;;154.00;2252.80;;;;;;4973311;28;20035;-68
2022/11/28 07:09:03;;;;;;;158.65;87.05;;;154.10;2252.80;;;;;;4973364;28;20031;-59
2022/11/28 07:11:31;;;;;;;163.50;80.82;;;154.10;2252.80;;;;;;4973036;28;20093;-60
2022/11/28 07:13:59;;;;;;;135.90;69.07;;;154.00;2252.80;;;;;;4972956;28;20027;-58
2022/11/28 07:16:31;;;;;;;148.57;74.95;;;154.20;2252.80;;;;;;4973120;28;20535;-54
2022/11/28 07:18:58;;;;;;;137.80;76.88;;;154.30;2252.80;;;;;;4973049;28;20035;-52
2022/11/28 07:21:24;;;;;;;173.32;88.28;;;154.40;2252.80;;;;;;4973095;28;20027;-52
2022/11/28 07:23:51;;;;;;;144.20;77.40;;;154.00;2252.80;;;;;;4972889;28;20062;-52
2022/11/28 07:26:18;;;;;;;172.95;86.82;;;153.90;2252.80;;;;;;4972757;28;20115;-53
2022/11/28 07:28:44;;;;;;;154.18;75.88;;;153.60;2252.80;;;;;;4973145;28;20038;-52
2022/11/28 07:31:13;;;;;;;162.52;84.50;;;153.80;2252.80;;;;;;4972742;28;20035;-53
2022/11/28 07:33:41;;;;;;;167.63;81.28;;;154.00;2252.80;;;;;;4972771;28;20378;-57
2022/11/28 07:36:11;;;;;;;159.70;83.35;;;153.90;2252.80;;;;;;4972644;28;20498;-57
2022/11/28 07:38:37;;;;;;;164.00;80.35;;;154.00;2252.80;;;;;;4972668;28;20034;-54
2022/11/28 07:41:11;;;;;;;152.98;75.50;;;154.10;2252.80;;;;;;4972133;28;20115;-58
2022/11/28 07:43:38;;;;;;;165.68;77.65;;;153.70;2252.80;;;;;;4972533;28;20027;-57
2022/11/28 07:46:07;;;;;;;173.07;88.38;;;128.90;2252.80;;;;;;4972689;28;20027;-58
2022/11/28 07:48:33;;;;;;;193.20;92.35;;;153.80;2252.80;;;;;;4972667;28;20027;-57
2022/11/28 07:50:59;;;;;;;169.55;81.38;;;153.80;2252.80;;;;;;4972250;28;20031;-57
2022/11/28 07:53:25;;;;;;;206.38;94.97;;;153.70;1996.80;;;;;;4972512;28;20496;-59
2022/11/28 07:55:51;;;;;;;211.98;97.57;;;154.00;2252.80;;;;;;4972016;28;20486;-59
2022/11/28 07:58:16;;;;;;;206.23;104.18;;;153.80;2252.80;;;;;;4954744;28;20130;-54
2022/11/28 08:00:42;;;;;;;181.10;92.35;;;153.90;2252.80;;;;;;4954765;28;20031;-56
2022/11/28 08:03:08;;;;;;;187.48;89.57;;;154.20;2252.80;;;;;;4972128;28;20062;-59
2022/11/28 08:05:33;;;;;;;178.77;83.72;;;154.10;2252.80;;;;;;4971992;28;20035;-58
2022/11/28 08:07:59;;;;;;;181.73;86.60;;;153.90;2252.80;;;;;;4971955;28;20035;-59
2022/11/28 08:10:25;;;;;;;177.63;86.13;;;153.90;2252.80;;;;;;4972167;28;20062;-59
2022/11/28 08:12:51;;;;;;;219.20;84.70;;;154.10;2252.80;;;;;;4972109;28;20037;-57
2022/11/28 08:15:16;;;;;;;179.32;89.43;;;153.80;2252.80;;;;;;4972033;28;20106;-55
2022/11/28 08:17:42;;;;;;;194.32;91.93;;;153.60;2252.80;;;;;;4971822;28;20082;-57
2022/11/28 08:20:08;;;;;;;205.98;102.72;;;128.90;2201.60;;;;;;4971834;28;20030;-58
2022/11/28 08:22:34;;;;;;;164.82;87.95;;;153.70;2252.80;;;;;;4971846;28;20386;-57
2022/11/28 08:25:00;;;;;;;157.77;76.45;;;154.00;2252.80;;;;;;4971608;28;20030;-57
2022/11/28 08:27:25;;;;;;;190.57;107.25;;;154.10;2252.80;;;;;;4971788;28;20414;-58
2022/11/28 08:29:51;;;;;;;160.13;80.07;;;154.40;2252.80;;;;;;4972023;28;20521;-57
2022/11/28 08:32:17;;;;;;;171.60;79.63;;;179.30;2252.80;;;;;;4971552;28;20066;-52
2022/11/28 08:34:43;;;;;;;175.35;97.50;;;179.40;2252.80;;;;;;4971679;28;20031;-53
2022/11/28 08:37:08;;;;;;;126.47;69.10;;;179.40;2252.80;;;;;;4971363;28;20133;-52
2022/11/28 08:39:34;;;;;;;120.88;60.47;;;179.40;2252.80;;;;;;4972173;28;20034;-59
2022/11/28 08:42:00;;;;;;;118.65;63.97;;;179.50;2252.80;;;;;;4971292;28;20525;-52
2022/11/28 08:44:26;;;;;;;132.90;68.55;;;179.60;2252.80;;;;;;4971576;28;20030;-52
2022/11/28 08:46:53;;;;;;;114.72;58.92;;;179.70;2252.80;;;;;;4971432;28;20027;-52
2022/11/28 08:49:19;;;;;;;133.68;72.47;;;179.80;2252.80;;;;;;4971409;28;20058;-58
2022/11/28 08:51:45;;;;;;;119.47;60.40;;;179.70;2252.80;;;;;;4971537;28;20031;-56
2022/11/28 08:54:11;;;;;;;114.90;63.72;;;179.80;2252.80;;;;;;4971227;28;20031;-57
2022/11/28 08:56:36;;;;;;;120.82;63.50;;;179.80;2252.80;;;;;;4971397;28;20062;-58
2022/11/28 08:59:02;;;;;;;99.03;51.55;;;179.70;2252.80;;;;;;4971467;28;20034;-57
2022/11/28 09:01:28;;;;;;;110.97;60.28;;;179.80;2252.80;;;;;;4971339;28;20026;-57
2022/11/28 09:03:55;;;;;;;118.03;62.42;;;179.80;2252.80;;;;;;4971310;28;20362;-57
2022/11/28 09:06:21;;;;;;;116.65;63.13;;;179.90;2252.80;;;;;;4971288;28;20046;-58
2022/11/28 09:08:49;;;;;;;124.85;65.60;;;180.00;2252.80;;;;;;4971055;28;20038;-58
2022/11/28 09:11:17;;;;;;;132.25;70.88;;;180.10;2252.80;;;;;;4971192;28;20027;-59
2022/11/28 09:13:43;;;;;;;125.68;67.30;;;180.00;2252.80;;;;;;4971281;28;20055;-59
2022/11/28 09:16:09;;;;;;;143.80;74.40;;;179.80;2252.80;;;;;;4971305;28;20058;-57
2022/11/28 09:18:35;;;;;;;128.65;76.43;;;179.60;2252.80;;;;;;4971151;28;20045;-56
2022/11/28 09:21:04;;;;;;;126.55;72.95;;;179.70;2252.80;;;;;;4971075;28;20030;-58
2022/11/28 09:23:30;;;;;;;136.23;74.38;;;179.90;2252.80;;;;;;4971046;28;20045;-58
2022/11/28 09:25:56;;;;;;;121.57;71.88;;;179.80;2252.80;;;;;;4971151;28;20031;-59
2022/11/28 09:28:22;;;;;;;110.20;64.53;;;180.00;2252.80;;;;;;4970850;28;20026;-59
2022/11/28 09:30:48;;;;;;;119.80;65.75;;;180.00;2252.80;;;;;;4970988;28;20031;-56
2022/11/28 09:33:13;;;;;;;129.55;70.32;;;179.90;2252.80;;;;;;4954117;28;20038;-52
2022/11/28 09:35:39;;;;;;;130.98;73.85;;;180.10;2252.80;;;;;;4970817;28;20070;-52
2022/11/28 09:38:06;;;;;;;124.32;70.20;;;180.10;2252.80;;;;;;4969474;28;20404;-59
2022/11/28 09:40:38;;;;;;;140.20;73.00;;;204.80;2252.80;;;;;;4968248;28;20027;-53
2022/11/28 09:43:14;;;;;;;115.10;62.85;;;180.00;2252.80;;;;;;4969392;28;20105;-57
2022/11/28 09:45:41;;;;;;;111.65;60.00;;;179.90;2252.80;;;;;;4969165;28;20059;-57
2022/11/28 09:48:25;;;;;;;99.72;56.00;;;179.90;2252.80;;;;;;4969364;28;20117;-58
2022/11/28 09:50:56;;;;;;;117.60;58.88;;;179.70;2252.80;;;;;;4969287;28;20030;-59
2022/11/28 09:53:46;;;;;;;100.10;59.03;;;180.00;2252.80;;;;;;4968873;28;20031;-58
2022/11/28 09:56:15;;;;;;;112.50;58.75;;;204.90;2252.80;;;;;;4969207;28;20063;-58
2022/11/28 09:58:59;;;;;;;114.13;60.63;;;205.10;2252.80;;;;;;4969157;28;20027;-58
2022/11/28 10:01:30;;;;;;;117.25;63.80;;;205.50;2252.80;;;;;;4969370;28;20019;-57
2022/11/28 10:04:17;;;;;;;107.88;61.15;;;205.50;2252.80;;;;;;4969298;28;20030;-58
2022/11/28 10:07:04;;;;;;;121.35;70.88;;;230.50;2252.80;;;;;;4972239;28;20038;-62
2022/11/28 10:09:42;;;;;;;180.77;94.40;;;231.00;2252.80;;;;;;4972769;28;20035;-55
2022/11/28 10:12:23;;;;;;;127.75;78.50;;;256.30;2252.80;;;;;;4972786;28;20098;-64
2022/11/28 10:15:16;;;;;;;146.32;89.53;;;256.30;2252.80;;;;;;4972676;28;20030;-64
2022/11/28 10:18:22;;;;;;;107.25;64.97;;;256.00;2252.80;;;;;;4972232;28;20114;-63
2022/11/28 10:20:53;;;;;;;144.50;84.88;;;230.60;2252.80;;;;;;4972352;28;20500;-61
2022/11/28 10:23:27;;;;;;;130.48;81.85;;;231.00;2252.80;;;;;;4972680;28;20377;-65
2022/11/28 10:26:05;;;;;;;137.68;77.05;;;230.90;2252.80;;;;;;4972786;28;20397;-63
2022/11/28 10:28:35;;;;;;;98.55;57.10;;;231.00;2252.80;;;;;;4972412;28;20019;-63
2022/11/28 10:31:19;;;;;;;102.88;61.75;;;230.60;2252.80;;;;;;4971913;28;20027;-66
2022/11/28 10:33:48;;;;;;;103.50;63.60;;;205.60;2252.80;;;;;;4972817;28;20030;-64
2022/11/28 10:36:24;;;;;;;104.40;65.43;;;205.70;2252.80;;;;;;4972359;28;20030;-61
2022/11/28 10:38:49;;;;;;;106.25;63.90;;;230.40;2252.80;;;;;;4972268;28;20043;-63
2022/11/28 10:41:27;;;;;;;101.72;59.50;;;230.70;2252.80;;;;;;4972467;28;20045;-66
2022/11/28 10:44:11;;;;;;;107.03;62.45;;;230.80;2252.80;;;;;;4971930;28;20438;-57
2022/11/28 10:47:16;;;;;;;92.35;57.20;;;230.80;2252.80;;;;;;4972073;28;20015;-59
2022/11/28 10:50:01;;;;;;;99.75;60.78;;;205.50;2252.80;;;;;;4949135;28;20039;-62
2022/11/28 10:52:33;;;;;;;92.53;56.50;;;205.60;2252.80;;;;;;4972136;28;20023;-62
2022/11/28 10:55:31;;;;;;;102.90;63.28;;;205.20;2252.80;;;;;;4971803;28;20045;-63
2022/11/28 10:58:35;;;;;;;106.88;60.65;;;205.10;2252.80;;;;;;4971540;28;20421;-64
2022/11/28 11:01:01;;;;;;;100.85;61.20;;;205.10;2252.80;;;;;;4893119;29;20033;-62
2022/11/28 11:03:31;;;;;;;101.60;55.78;;;205.50;2252.80;;;;;;4893259;29;20554;-55
2022/11/28 11:05:58;;;;;;;106.47;62.40;;;205.60;2252.80;;;;;;4893099;29;20615;-59
2022/11/28 11:08:27;;;;;;;95.70;56.65;;;205.60;2252.80;;;;;;4893154;29;20623;-59
2022/11/28 11:11:22;;;;;;;87.97;48.90;;;205.70;2252.80;;;;;;4892685;29;20039;-56
2022/11/28 11:14:01;;;;;;;90.18;51.38;;;205.50;2252.80;;;;;;4892950;29;20032;-57
2022/11/28 11:16:59;;;;;;;79.63;48.58;;;205.60;2252.80;;;;;;4891719;29;20044;-55
2022/11/28 11:19:34;;;;;;;75.20;48.08;;;205.50;2252.80;;;;;;4892990;29;20040;-65
2022/11/28 11:22:11;;;;;;;74.32;46.28;;;205.50;2252.80;;;;;;4892579;29;20040;-58
2022/11/28 11:24:37;;;;;;;67.80;43.35;;;205.60;2252.80;;;;;;4892540;29;20595;-59
2022/11/28 11:27:20;;;;;;;79.22;48.67;;;205.70;2252.80;;;;;;4892673;29;20172;-65
2022/11/28 11:29:46;;;;;;;71.78;46.08;;;230.40;2252.80;;;;;;4892727;29;20496;-56
2022/11/28 11:32:23;;;;;;;65.25;40.30;;;230.50;2252.80;;;;;;4892656;29;20036;-64
2022/11/28 11:34:50;;;;;;;71.03;43.58;;;205.50;2252.80;;;;;;4925204;28;20045;-58
2022/11/28 11:37:27;;;;;;;67.88;40.85;;;205.50;2252.80;;;;;;4970596;28;20549;-64
2022/11/28 11:39:53;;;;;;;67.53;39.25;;;205.70;2252.80;;;;;;4971288;28;20121;-61
2022/11/28 11:42:25;;;;;;;79.30;48.88;;;230.50;2252.80;;;;;;4970950;28;20035;-62
2022/11/28 11:44:51;;;;;;;57.50;38.45;;;230.60;2252.80;;;;;;4970829;28;20553;-64
2022/11/28 11:47:17;;;;;;;59.17;37.10;;;205.60;2252.80;;;;;;4970826;28;20130;-56
2022/11/28 11:49:48;;;;;;;75.25;44.38;;;205.70;2252.80;;;;;;4970900;28;20098;-64
2022/11/28 11:52:21;;;;;;;72.00;44.50;;;230.40;2252.80;;;;;;4970888;28;20381;-62
2022/11/28 11:54:55;;;;;;;65.55;41.88;;;205.60;2252.80;;;;;;4971052;28;20022;-63
2022/11/28 11:57:34;;;;;;;72.43;45.92;;;230.60;2252.80;;;;;;4970371;28;20706;-61
2022/11/28 12:00:09;;;;;;;86.35;53.65;;;230.70;2252.80;;;;;;4970755;28;20034;-65
2022/11/28 12:02:55;;;;;;;74.45;44.67;;;230.40;2252.80;;;;;;4970503;28;20030;-61
2022/11/28 12:05:30;;;;;;;58.75;36.88;;;230.40;2252.80;;;;;;4970330;28;20022;-60
2022/11/28 12:08:14;;;;;;;105.43;70.03;;;205.60;2252.80;;;;;;4970667;28;20544;-54
2022/11/28 12:10:45;;;;;;;72.07;45.85;;;205.70;2252.80;;;;;;4971176;28;20074;-53
2022/11/28 12:13:20;;;;;;;69.40;40.47;;;230.40;2252.80;;;;;;4972074;28;20030;-54